Aeroporto :
LOGIN :

Iscrizione | Disclaimer

   EN    FR    IT 

 










Sommario :    VFR   VFR Marginale   IFR   IFR Intensivo   IFR Molto Intensivo
Visibilità : 
Base nubi : 
>= 8 km
>= 3000ft
5 / 8 km
1000 / 3000 ft
1500m / 5 km
500 / 1000 ft
800 / 1500m
200 / 500 ft
< 800m
< 200 ft
Simboli :   Temporali  Nebbia  Neve Forte  Precipitazioni Forti  Vento > 20 kt
SIGMETs :   Varie  Temporali  Ghiacco  Turbolenza  Onda orograficha  Ceneri Vulcaniche






- Altitudine del aeroporto : 1197 ft
- Codice IATA : SPM


ETAD - Spangdahlem Ab

ULTIMO METAR :
  • 181156Z AUTO 10004KT 9999 CLR 29/17 A2996 RMK AO2 SLP117 60000 T02880170 10288 20209 50000 $

METARs OBSOLETI :
  • 181056Z AUTO 07005KT 9999 FEW110 FEW200 28/17 A2996 RMK AO2 DZE0959 SLP117 P0000 T02760171 $
  • 180959Z AUTO 08004KT 9999 FEW080 SCT150 25/18 A2996 RMK AO2 DZE59 SLP118 $
  • 180956Z AUTO 06003KT 9999 -DZ SCT080 SCT110 25/18 A2996 RMK AO2 DZB50 SLP118 P0000 T02470181 $
  • 180950Z AUTO 08003KT 9999 -DZ SCT080 25/18 A2996 RMK AO2 DZB50 SLP118 $

TAF TAF ETAD
Valido dal 18 a 12 ore il 19 a 18 ore UTC


181200Z 1812/1918 10006KT 9999 SCT080 QNH2992INS
TEMPO 1814/1818 19010G20KT 8000 -TSRA BKN030CB
BECMG 1817/1818 23007KT 9999 FEW060 QNH2994INS
BECMG 1822/1823 VRB04KT 9999 FEW100 QNH2998INS
BECMG 1908/1909 20010G15KT 9999 SCT100 QNH2988INS TX31/1814Z TN17/1904Z



MetMap, La meteo Aeronautica in un colpo d'occhio ! - Copyright ORBIFLY Dicembre 2007 - Disclaimer

ORBIFLY MET'MAP TEAM :

Programmazione e sviluppo : Alexandra Zaïnal
Concezione : Baudouin d'Aumeries
Aiuto per la programmazione : Marc-Olivier Méhu
Supporto tecnico e logistico : Manuel Goepfert
Aiuto per la traduzione : Arnaldo La Scala

Contatto : metmap@orbifly.com




FONTI E CREDITI :

   NOAA